createdAt,value
2022-09-15T00:01:12.611Z,17.30
2022-09-15T00:03:40.628Z,21.92
2022-09-15T00:06:09.603Z,20.00
2022-09-15T00:08:37.243Z,21.95
2022-09-15T00:11:16.023Z,20.48
2022-09-15T00:13:43.262Z,19.88
2022-09-15T00:16:15.262Z,18.77
2022-09-15T00:18:44.224Z,17.42
2022-09-15T00:21:19.108Z,18.00
2022-09-15T00:23:47.383Z,20.05
2022-09-15T00:26:18.232Z,22.27
2022-09-15T00:28:46.075Z,17.65
2022-09-15T00:31:17.630Z,19.95
2022-09-15T00:33:52.541Z,26.50
2022-09-15T00:36:21.324Z,19.98
2022-09-15T00:38:48.688Z,21.35
2022-09-15T00:41:20.719Z,23.40
2022-09-15T00:43:57.710Z,21.70
2022-09-15T00:46:39.686Z,21.80
2022-09-15T00:49:22.315Z,20.38
2022-09-15T00:52:10.335Z,21.05
2022-09-15T00:55:15.949Z,17.80
2022-09-15T00:58:11.333Z,21.63
2022-09-15T01:00:56.792Z,20.15
2022-09-15T01:03:26.264Z,20.63
2022-09-15T01:06:03.081Z,20.38
2022-09-15T01:08:54.373Z,20.67
2022-09-15T01:11:21.499Z,21.02
2022-09-15T01:13:49.017Z,20.95
2022-09-15T01:16:58.387Z,23.00
2022-09-15T01:19:56.184Z,24.45
2022-09-15T01:22:38.017Z,23.23
2022-09-15T01:25:35.305Z,21.77
2022-09-15T01:28:23.469Z,23.70
2022-09-15T01:31:03.357Z,22.25
2022-09-15T01:34:22.858Z,24.65
2022-09-15T01:37:03.008Z,21.92
2022-09-15T01:39:39.919Z,27.27
2022-09-15T01:42:12.724Z,25.17
2022-09-15T01:44:52.074Z,24.08
2022-09-15T01:47:21.089Z,25.42
2022-09-15T01:50:09.479Z,22.30
2022-09-15T01:52:40.196Z,21.15
2022-09-15T01:55:42.096Z,23.58
2022-09-15T01:58:09.549Z,26.50
2022-09-15T02:00:45.993Z,22.98
2022-09-15T02:03:33.684Z,19.85
2022-09-15T02:06:09.066Z,22.33
2022-09-15T02:08:50.247Z,24.63
2022-09-15T02:11:21.355Z,19.92
2022-09-15T02:14:03.824Z,25.13
2022-09-15T02:16:35.347Z,27.67
2022-09-15T02:19:31.134Z,24.90
2022-09-15T02:22:20.323Z,23.10
2022-09-15T02:24:57.919Z,20.27
2022-09-15T02:27:29.030Z,27.85
2022-09-15T02:30:03.213Z,20.13
2022-09-15T02:32:32.279Z,19.92
2022-09-15T02:35:04.732Z,22.98
2022-09-15T02:37:32.408Z,24.13
2022-09-15T02:40:01.297Z,24.65
2022-09-15T02:42:31.573Z,26.23
2022-09-15T02:45:00.911Z,23.90
2022-09-15T02:47:29.039Z,24.30
2022-09-15T02:49:57.137Z,22.13
2022-09-15T02:52:24.474Z,23.75
2022-09-15T02:54:51.415Z,22.00
2022-09-15T02:57:18.424Z,26.40
2022-09-15T03:00:04.802Z,25.50
2022-09-15T03:02:32.295Z,23.65
2022-09-15T03:04:59.322Z,26.90
2022-09-15T03:07:28.655Z,26.33
2022-09-15T03:09:55.840Z,26.33
2022-09-15T03:12:23.154Z,23.60
2022-09-15T03:14:50.729Z,27.92
2022-09-15T03:17:18.410Z,26.35
2022-09-15T03:19:45.613Z,22.35
2022-09-15T03:22:12.658Z,23.48
2022-09-15T03:24:40.260Z,21.92
2022-09-15T03:27:07.349Z,25.45
2022-09-15T03:29:34.332Z,27.58
2022-09-15T03:32:01.885Z,25.67
2022-09-15T03:34:29.467Z,26.77
2022-09-15T03:36:56.586Z,23.98
2022-09-15T03:39:24.436Z,24.33
2022-09-15T03:41:51.388Z,22.02
2022-09-15T03:44:18.753Z,24.52
2022-09-15T03:46:45.858Z,25.02
2022-09-15T03:49:13.455Z,21.50
2022-09-15T03:51:41.194Z,21.95
2022-09-15T03:54:08.614Z,29.48
2022-09-15T03:56:35.894Z,26.13
2022-09-15T03:59:05.718Z,29.33
2022-09-15T04:01:33.771Z,23.90
2022-09-15T04:04:00.995Z,28.63
2022-09-15T04:06:28.616Z,24.38
2022-09-15T04:08:55.685Z,24.15
2022-09-15T04:11:23.575Z,33.63
2022-09-15T04:13:52.376Z,27.88
2022-09-15T04:16:25.979Z,24.60
2022-09-15T04:18:53.477Z,26.15
2022-09-15T04:21:24.184Z,30.88
2022-09-15T04:23:52.000Z,28.92
2022-09-15T04:26:33.901Z,23.58
2022-09-15T04:29:04.453Z,22.58
2022-09-15T04:31:34.105Z,31.08
2022-09-15T04:34:01.429Z,24.50
2022-09-15T04:36:29.536Z,23.92
2022-09-15T04:38:57.662Z,23.05
2022-09-15T04:41:27.513Z,24.23
2022-09-15T04:43:55.285Z,25.45
2022-09-15T04:46:22.412Z,27.83
2022-09-15T04:48:49.591Z,24.38
2022-09-15T04:51:19.840Z,22.60
2022-09-15T04:53:47.346Z,26.17
2022-09-15T04:56:23.130Z,28.30
2022-09-15T04:58:54.089Z,25.98
2022-09-15T05:01:28.897Z,24.95
2022-09-15T05:03:56.301Z,26.13
2022-09-15T05:06:27.033Z,30.67
2022-09-15T05:08:57.706Z,31.58
2022-09-15T05:11:26.154Z,26.38
2022-09-15T05:13:54.073Z,25.73
2022-09-15T05:16:26.302Z,25.25
2022-09-15T05:18:59.680Z,26.65
2022-09-15T05:21:27.743Z,27.13
2022-09-15T05:23:55.135Z,30.00
2022-09-15T05:26:28.339Z,25.38
2022-09-15T05:28:57.238Z,26.35
2022-09-15T05:31:28.672Z,22.95
2022-09-15T05:33:55.838Z,28.05
2022-09-15T05:36:27.501Z,31.05
2022-09-15T05:38:56.671Z,27.23
2022-09-15T05:41:25.631Z,25.38
2022-09-15T05:43:53.596Z,28.60
2022-09-15T05:46:20.987Z,28.30
2022-09-15T05:48:48.760Z,26.75
2022-09-15T05:51:15.908Z,24.25
2022-09-15T05:53:42.969Z,28.05
2022-09-15T05:56:16.344Z,26.23
2022-09-15T05:58:46.909Z,26.70
2022-09-15T06:01:21.053Z,25.83
2022-09-15T06:03:49.136Z,28.40
2022-09-15T06:06:16.441Z,27.55
2022-09-15T06:08:54.043Z,29.70
2022-09-15T06:11:27.917Z,25.98
2022-09-15T06:13:55.088Z,24.42
2022-09-15T06:16:24.495Z,29.65
2022-09-15T06:18:53.415Z,30.50
2022-09-15T06:21:27.299Z,24.23
2022-09-15T06:24:00.755Z,25.35
2022-09-15T06:26:28.913Z,24.50
2022-09-15T06:28:59.341Z,27.52
2022-09-15T06:31:29.205Z,36.08
2022-09-15T06:33:57.778Z,30.08
2022-09-15T06:36:28.494Z,32.58
2022-09-15T06:38:56.694Z,30.55
2022-09-15T06:41:24.693Z,28.30
2022-09-15T06:43:52.528Z,29.58
2022-09-15T06:46:23.076Z,32.20
2022-09-15T06:48:51.878Z,30.40
2022-09-15T06:51:22.333Z,25.70
2022-09-15T06:53:49.916Z,24.13
2022-09-15T06:56:22.519Z,30.23
2022-09-15T06:58:50.246Z,28.95
2022-09-15T07:01:25.302Z,23.27
2022-09-15T07:03:53.572Z,20.40
2022-09-15T07:06:21.465Z,24.75
2022-09-15T07:08:49.930Z,20.02
2022-09-15T07:11:18.313Z,22.63
2022-09-15T07:13:45.595Z,22.80
2022-09-15T07:16:14.223Z,21.45
2022-09-15T07:18:43.454Z,20.42
2022-09-15T07:21:17.260Z,18.80
2022-09-15T07:23:44.871Z,21.63
2022-09-15T07:26:14.835Z,20.50
2022-09-15T07:28:45.727Z,19.77
2022-09-15T07:31:17.785Z,17.58
2022-09-15T07:33:45.392Z,19.13
2022-09-15T07:36:13.134Z,21.38
2022-09-15T07:38:44.445Z,21.50
2022-09-15T07:41:15.231Z,19.70
2022-09-15T07:43:47.514Z,16.58
2022-09-15T07:46:15.353Z,18.38
2022-09-15T07:48:45.981Z,17.52
2022-09-15T07:51:14.330Z,17.88
2022-09-15T07:53:42.271Z,15.38
2022-09-15T07:56:09.611Z,14.30
2022-09-15T07:58:36.602Z,14.85
2022-09-15T08:01:11.597Z,14.82
2022-09-15T08:03:57.269Z,19.77
2022-09-15T08:06:26.903Z,19.38
2022-09-15T08:08:59.977Z,16.55
2022-09-15T08:11:28.407Z,13.02
2022-09-15T08:13:55.572Z,17.95
2022-09-15T08:16:24.715Z,14.10
2022-09-15T08:18:55.460Z,14.45
2022-09-15T08:21:23.368Z,16.52
2022-09-15T08:23:59.758Z,13.50
2022-09-15T08:26:29.121Z,12.80
2022-09-15T08:28:56.577Z,13.82
2022-09-15T08:31:25.104Z,11.50
2022-09-15T08:33:54.703Z,19.35
2022-09-15T08:36:22.621Z,13.40
2022-09-15T08:38:49.645Z,17.65
2022-09-15T08:41:29.489Z,17.80
2022-09-15T08:44:11.159Z,13.45
2022-09-15T08:46:49.230Z,12.80
2022-09-15T08:49:47.520Z,12.30
2022-09-15T08:52:36.295Z,14.73
2022-09-15T08:55:28.712Z,12.32
2022-09-15T08:57:56.086Z,17.25
2022-09-15T09:00:26.927Z,13.63
2022-09-15T09:02:59.724Z,8.60
2022-09-15T09:05:57.300Z,11.10
2022-09-15T09:08:47.614Z,11.80
2022-09-15T09:11:33.641Z,12.18
2022-09-15T09:14:42.739Z,10.73
2022-09-15T09:17:31.590Z,8.18
2022-09-15T09:20:41.322Z,7.80
2022-09-15T09:23:17.869Z,9.65
2022-09-15T09:25:45.711Z,8.75
2022-09-15T09:28:38.979Z,8.52
2022-09-15T09:31:15.772Z,11.50
2022-09-15T09:33:52.053Z,7.40
2022-09-15T09:36:19.661Z,14.07
2022-09-15T09:38:48.906Z,7.93
2022-09-15T09:41:25.505Z,12.77
2022-09-15T09:43:55.943Z,7.28
2022-09-15T09:46:23.068Z,5.68
2022-09-15T09:49:01.332Z,10.18
2022-09-15T09:51:48.142Z,9.60
2022-09-15T09:54:20.855Z,7.75
2022-09-15T09:56:53.653Z,6.40
2022-09-15T09:59:49.448Z,8.73
2022-09-15T10:02:24.720Z,9.10
2022-09-15T10:04:52.653Z,5.72
2022-09-15T10:07:24.854Z,5.90
2022-09-15T10:10:02.285Z,6.65
2022-09-15T10:12:34.482Z,5.55
2022-09-15T10:15:06.751Z,5.43
2022-09-15T10:17:36.620Z,4.80
2022-09-15T10:20:06.446Z,5.65
2022-09-15T10:22:38.548Z,4.32
2022-09-15T10:25:39.732Z,7.05
2022-09-15T10:28:19.902Z,10.68
2022-09-15T10:31:05.330Z,5.75
2022-09-15T10:33:50.740Z,4.60
2022-09-15T10:36:31.980Z,5.47
2022-09-15T10:39:21.684Z,9.32
2022-09-15T10:42:16.756Z,4.20
2022-09-15T10:45:01.770Z,4.45
2022-09-15T10:47:55.651Z,9.68
2022-09-15T10:50:22.617Z,4.80
2022-09-15T10:53:27.853Z,6.60
2022-09-15T10:55:54.690Z,3.38
2022-09-15T10:59:26.379Z,4.53
2022-09-15T11:02:21.954Z,3.97
2022-09-15T11:05:05.596Z,5.88
2022-09-15T11:08:14.180Z,7.68
2022-09-15T11:10:54.639Z,3.15
2022-09-15T11:13:47.821Z,4.60
2022-09-15T11:16:56.902Z,4.57
2022-09-15T11:20:24.069Z,6.43
2022-09-15T11:23:04.044Z,4.47
2022-09-15T11:25:35.878Z,4.93
2022-09-15T11:28:42.971Z,2.38
2022-09-15T11:31:24.997Z,5.15
2022-09-15T11:34:03.455Z,2.55
2022-09-15T11:36:45.484Z,1.73
2022-09-15T11:39:26.141Z,4.55
2022-09-15T11:41:58.822Z,2.17
2022-09-15T11:44:36.411Z,6.32
2022-09-15T11:47:40.787Z,5.03
2022-09-15T11:50:24.384Z,2.47
2022-09-15T11:53:16.831Z,3.88
2022-09-15T11:56:16.086Z,5.75
2022-09-15T11:59:20.910Z,4.00
2022-09-15T12:02:07.952Z,5.88
2022-09-15T12:05:03.802Z,4.07
2022-09-15T12:07:41.030Z,4.20
2022-09-15T12:10:43.539Z,3.75
2022-09-15T12:13:19.884Z,5.68
2022-09-15T12:15:48.817Z,3.92
2022-09-15T12:18:40.207Z,6.63
2022-09-15T12:21:19.641Z,5.45
2022-09-15T12:24:16.712Z,3.42
2022-09-15T12:26:46.612Z,8.27
2022-09-15T12:29:31.275Z,7.38
2022-09-15T12:32:27.759Z,2.83
2022-09-15T12:35:15.695Z,4.85
2022-09-15T12:37:46.615Z,3.63
2022-09-15T12:40:42.106Z,3.70
2022-09-15T12:43:12.976Z,5.28
2022-09-15T12:45:43.832Z,3.60
2022-09-15T12:48:29.215Z,5.05
2022-09-15T12:51:07.491Z,3.85
2022-09-15T12:53:38.225Z,3.70
2022-09-15T12:56:10.488Z,2.55
2022-09-15T12:58:47.075Z,4.20
2022-09-15T13:01:26.134Z,2.58
2022-09-15T13:03:57.995Z,5.93
2022-09-15T13:06:35.102Z,2.53
2022-09-15T13:09:02.019Z,2.78
2022-09-15T13:11:37.389Z,4.85
2022-09-15T13:14:06.927Z,6.45
2022-09-15T13:16:46.212Z,4.82
2022-09-15T13:19:44.300Z,3.72
2022-09-15T13:22:11.198Z,3.30
2022-09-15T13:24:44.774Z,5.05
2022-09-15T13:27:14.574Z,4.50
2022-09-15T13:29:48.851Z,3.53
2022-09-15T13:32:28.025Z,3.42
2022-09-15T13:35:21.908Z,2.88
2022-09-15T13:38:52.474Z,5.88
2022-09-15T13:41:52.890Z,5.20
2022-09-15T13:44:52.571Z,5.97
2022-09-15T13:48:10.317Z,6.97
2022-09-15T13:50:41.911Z,6.53
2022-09-15T13:53:52.567Z,5.15
2022-09-15T13:56:32.139Z,5.65
2022-09-15T13:59:08.629Z,4.38
2022-09-15T14:01:42.165Z,6.38
2022-09-15T14:04:20.724Z,5.55
2022-09-15T14:06:54.989Z,5.35
2022-09-15T14:09:34.122Z,4.85
2022-09-15T14:12:11.474Z,2.00
2022-09-15T14:14:42.328Z,3.05
2022-09-15T14:17:28.818Z,4.20
2022-09-15T14:20:00.856Z,4.90
2022-09-15T14:22:33.454Z,2.75
2022-09-15T14:25:08.412Z,4.85
2022-09-15T14:27:43.002Z,3.33
2022-09-15T14:30:29.358Z,4.95
2022-09-15T14:33:02.187Z,3.33
2022-09-15T14:35:37.455Z,3.25
2022-09-15T14:38:04.694Z,4.43
2022-09-15T14:40:39.381Z,3.42
2022-09-15T14:43:32.110Z,1.50
2022-09-15T14:46:13.464Z,5.45
2022-09-15T14:48:43.088Z,4.03
2022-09-15T14:51:33.038Z,3.53
2022-09-15T14:54:01.684Z,4.90
2022-09-15T14:56:40.897Z,5.47
2022-09-15T14:59:19.432Z,2.58
2022-09-15T15:02:24.315Z,4.70
2022-09-15T15:05:24.755Z,4.68
2022-09-15T15:07:52.523Z,2.72
2022-09-15T15:10:32.195Z,3.90
2022-09-15T15:13:12.891Z,3.45
2022-09-15T15:15:40.354Z,4.57
2022-09-15T15:18:36.440Z,3.55
2022-09-15T15:21:04.162Z,3.53
2022-09-15T15:23:32.883Z,1.95
2022-09-15T15:26:36.506Z,3.88
2022-09-15T15:29:07.067Z,3.83
2022-09-15T15:31:38.378Z,1.85
2022-09-15T15:34:21.373Z,3.60
2022-09-15T15:36:48.532Z,1.55
2022-09-15T15:39:25.085Z,6.40
2022-09-15T15:42:06.778Z,2.75
2022-09-15T15:44:34.082Z,5.45
2022-09-15T15:47:27.426Z,2.10
2022-09-15T15:50:12.930Z,3.13
2022-09-15T15:52:41.639Z,7.88
2022-09-15T15:55:13.449Z,2.92
2022-09-15T15:57:40.868Z,6.07
2022-09-15T16:00:26.024Z,3.13
2022-09-15T16:02:53.389Z,2.28
2022-09-15T16:05:25.434Z,2.92
2022-09-15T16:07:54.072Z,2.63
2022-09-15T16:10:27.343Z,2.60
2022-09-15T16:12:54.362Z,3.85
2022-09-15T16:15:22.798Z,4.43
2022-09-15T16:17:49.937Z,1.88
2022-09-15T16:20:17.320Z,5.05
2022-09-15T16:22:44.363Z,2.90
2022-09-15T16:25:52.604Z,5.97
2022-09-15T16:28:20.116Z,3.42
2022-09-15T16:30:48.973Z,4.53
2022-09-15T16:33:18.896Z,2.42
2022-09-15T16:36:03.839Z,4.35
2022-09-15T16:38:30.937Z,2.50
2022-09-15T16:40:58.265Z,1.70
2022-09-15T16:43:25.630Z,4.45
2022-09-15T16:45:53.189Z,3.55
2022-09-15T16:48:20.936Z,3.13
2022-09-15T16:51:16.137Z,4.72
2022-09-15T16:53:39.587Z,2.83
2022-09-15T16:56:10.611Z,2.95
2022-09-15T16:58:38.421Z,4.20
2022-09-15T17:01:06.374Z,2.45
2022-09-15T17:03:34.161Z,2.30
2022-09-15T17:06:02.183Z,5.60
2022-09-15T17:08:32.638Z,2.00
2022-09-15T17:11:05.135Z,5.78
2022-09-15T17:13:34.332Z,2.05
2022-09-15T17:16:02.439Z,3.42
2022-09-15T17:18:29.999Z,2.97
2022-09-15T17:20:57.421Z,5.38
2022-09-15T17:23:34.772Z,4.00
2022-09-15T17:26:05.776Z,5.55
2022-09-15T17:28:36.543Z,4.45
2022-09-15T17:31:12.028Z,4.45
2022-09-15T17:33:39.412Z,4.05
2022-09-15T17:36:07.089Z,5.10
2022-09-15T17:38:34.203Z,5.70
2022-09-15T17:41:01.354Z,5.93
2022-09-15T17:43:31.980Z,6.05
2022-09-15T17:45:59.205Z,7.80
2022-09-15T17:48:26.477Z,5.75
2022-09-15T17:50:53.864Z,5.68
2022-09-15T17:53:26.871Z,8.85
2022-09-15T17:55:55.718Z,5.35
2022-09-15T17:58:26.317Z,4.70
2022-09-15T18:00:57.311Z,2.88
2022-09-15T18:03:28.211Z,5.25
2022-09-15T18:06:00.634Z,5.70
2022-09-15T18:08:28.063Z,2.97
2022-09-15T18:10:55.605Z,4.55
2022-09-15T18:13:27.278Z,5.88
2022-09-15T18:15:55.018Z,4.13
2022-09-15T18:18:27.650Z,3.50
2022-09-15T18:20:57.987Z,5.13
2022-09-15T18:23:28.395Z,2.65
2022-09-15T18:25:55.843Z,5.50
2022-09-15T18:28:23.063Z,3.97
2022-09-15T18:30:50.837Z,3.95
2022-09-15T18:33:22.510Z,5.22
2022-09-15T18:35:54.244Z,2.30
2022-09-15T18:38:25.359Z,5.15
2022-09-15T18:40:56.331Z,4.72
2022-09-15T18:43:26.470Z,3.08
2022-09-15T18:45:59.225Z,2.47
2022-09-15T18:48:26.481Z,5.97
2022-09-15T18:50:53.644Z,5.03
2022-09-15T18:53:20.814Z,6.32
2022-09-15T18:55:49.087Z,3.42
2022-09-15T18:58:16.205Z,6.28
2022-09-15T19:00:45.861Z,6.78
2022-09-15T19:03:14.240Z,2.85
2022-09-15T19:05:41.798Z,4.65
2022-09-15T19:08:09.256Z,2.28
2022-09-15T19:10:38.413Z,3.75
2022-09-15T19:13:05.693Z,3.53
2022-09-15T19:15:34.679Z,10.85
2022-09-15T19:18:02.165Z,4.88
2022-09-15T19:20:30.055Z,5.30
2022-09-15T19:22:58.443Z,7.13
2022-09-15T19:25:25.511Z,6.70
2022-09-15T19:27:52.525Z,3.80
2022-09-15T19:30:19.690Z,2.72
2022-09-15T19:32:46.698Z,3.78
2022-09-15T19:35:13.780Z,5.85
2022-09-15T19:37:42.592Z,5.47
2022-09-15T19:40:14.175Z,5.18
2022-09-15T19:42:43.640Z,6.15
2022-09-15T19:45:13.041Z,3.70
2022-09-15T19:47:40.759Z,7.95
2022-09-15T19:50:09.624Z,6.45
2022-09-15T19:52:36.963Z,6.32
2022-09-15T19:55:07.694Z,8.65
2022-09-15T19:57:38.750Z,5.97
2022-09-15T20:00:08.759Z,6.47
2022-09-15T20:02:35.775Z,4.65
2022-09-15T20:05:03.391Z,8.38
2022-09-15T20:07:32.101Z,3.88
2022-09-15T20:09:59.218Z,7.43
2022-09-15T20:12:26.930Z,5.70
2022-09-15T20:14:57.014Z,4.47
2022-09-15T20:17:24.080Z,4.85
2022-09-15T20:19:51.474Z,3.83
2022-09-15T20:22:18.691Z,5.88
2022-09-15T20:24:45.993Z,5.13
2022-09-15T20:27:13.092Z,4.00
2022-09-15T20:29:40.440Z,7.05
2022-09-15T20:32:07.678Z,8.75
2022-09-15T20:34:34.801Z,3.45
2022-09-15T20:37:02.045Z,7.47
2022-09-15T20:39:29.221Z,4.43
2022-09-15T20:41:58.353Z,5.63
2022-09-15T20:44:26.387Z,4.10
2022-09-15T20:46:53.604Z,4.07
2022-09-15T20:49:20.629Z,4.25
2022-09-15T20:51:47.672Z,4.85
2022-09-15T20:54:15.074Z,2.42
2022-09-15T20:56:42.145Z,9.18
2022-09-15T20:59:13.804Z,4.55
2022-09-15T21:01:41.058Z,5.05
2022-09-15T21:04:10.107Z,7.35
2022-09-15T21:06:38.043Z,5.60
2022-09-15T21:09:06.083Z,2.72
2022-09-15T21:11:33.286Z,6.35
2022-09-15T21:14:01.163Z,3.38
2022-09-15T21:16:30.100Z,5.63
2022-09-15T21:18:58.859Z,4.40
2022-09-15T21:21:30.793Z,5.35
2022-09-15T21:24:04.721Z,6.38
2022-09-15T21:27:01.176Z,5.65
2022-09-15T21:29:29.188Z,7.43
2022-09-15T21:31:56.715Z,4.35
2022-09-15T21:34:24.227Z,6.95
2022-09-15T21:36:53.572Z,6.70
2022-09-15T21:39:21.293Z,3.85
2022-09-15T21:41:48.442Z,4.07
2022-09-15T21:44:16.249Z,4.97
2022-09-15T21:46:45.001Z,4.80
2022-09-15T21:49:12.028Z,6.25
2022-09-15T21:51:39.271Z,4.53
2022-09-15T21:54:06.358Z,5.63
2022-09-15T21:56:33.910Z,5.38
2022-09-15T21:59:03.341Z,6.15
2022-09-15T22:01:33.163Z,6.05
2022-09-15T22:04:03.873Z,4.82
2022-09-15T22:06:35.275Z,6.88
2022-09-15T22:09:06.831Z,4.78
2022-09-15T22:11:35.629Z,4.50
2022-09-15T22:14:08.658Z,3.10
2022-09-15T22:16:38.703Z,6.90
2022-09-15T22:19:08.251Z,4.10
2022-09-15T22:21:41.925Z,5.13
2022-09-15T22:24:13.443Z,6.43
2022-09-15T22:26:42.806Z,5.05
2022-09-15T22:29:10.454Z,5.15
2022-09-15T22:31:38.292Z,5.85
2022-09-15T22:34:05.888Z,4.60
2022-09-15T22:36:34.108Z,6.15
2022-09-15T22:39:06.200Z,6.75
2022-09-15T22:41:36.972Z,5.97
2022-09-15T22:44:05.783Z,2.90
2022-09-15T22:46:34.653Z,7.28
2022-09-15T22:49:02.141Z,5.85
2022-09-15T22:51:29.328Z,5.85
2022-09-15T22:53:57.592Z,4.40
2022-09-15T22:56:26.663Z,3.50
2022-09-15T22:58:55.195Z,7.80
2022-09-15T23:01:29.978Z,4.95
2022-09-15T23:04:02.030Z,5.05
2022-09-15T23:06:32.778Z,4.10
2022-09-15T23:09:03.717Z,5.25
2022-09-15T23:11:34.740Z,5.10
2022-09-15T23:14:02.641Z,4.60
2022-09-15T23:16:31.622Z,3.25
2022-09-15T23:18:59.718Z,7.68
2022-09-15T23:21:28.125Z,5.63
2022-09-15T23:23:55.771Z,6.47
2022-09-15T23:26:24.269Z,7.00
2022-09-15T23:28:52.114Z,7.18
2022-09-15T23:31:21.054Z,2.58
2022-09-15T23:33:48.797Z,8.32
2022-09-15T23:36:19.867Z,3.92
2022-09-15T23:38:48.127Z,8.05
2022-09-15T23:41:17.595Z,6.20
2022-09-15T23:43:45.278Z,4.57
2022-09-15T23:46:13.066Z,6.07
2022-09-15T23:48:40.536Z,9.43
2022-09-15T23:51:08.107Z,6.32
2022-09-15T23:53:35.510Z,6.93
2022-09-15T23:56:03.186Z,5.35
2022-09-15T23:58:30.402Z,7.63
